Time;durP1;ratioP1;P1;durP2;ratioP2;P2;SDS_P1;SDS_P2;PMS_P1;PMS_P2;Temp;Humidity;BMP_temperature;BMP_pressure;BME280_temperature;BME280_humidity;BME280_pressure;Samples;Min_cycle;Max_cycle;Signal;HPM_P1;HPM_P2
2022/05/14 00:00:26;;;;;;;5.67;2.03;;;15.90;90.20;;;;;;5031158;28;20170;-71
2022/05/14 00:02:55;;;;;;;3.25;1.95;;;15.90;90.50;;;;;;5031461;28;20657;-71
2022/05/14 00:05:23;;;;;;;4.28;1.65;;;15.90;90.70;;;;;;5030288;28;20209;-71
2022/05/14 00:07:51;;;;;;;3.88;1.73;;;15.90;90.90;;;;;;5030040;28;20581;-71
2022/05/14 00:10:21;;;;;;;4.25;1.60;;;15.80;90.90;;;;;;5031276;28;20537;-71
2022/05/14 00:13:05;;;;;;;3.70;1.48;;;15.80;91.10;;;;;;5030015;28;20605;-72
2022/05/14 00:15:38;;;;;;;3.60;1.45;;;15.80;91.20;;;;;;5031310;28;20181;-71
2022/05/14 00:18:06;;;;;;;5.32;1.50;;;15.80;91.30;;;;;;5030768;28;20188;-72
2022/05/14 00:20:33;;;;;;;4.20;1.38;;;15.80;91.50;;;;;;5029842;28;20776;-73
2022/05/14 00:22:59;;;;;;;5.65;1.83;;;15.80;91.60;;;;;;5031353;28;20173;-72
2022/05/14 00:25:26;;;;;;;7.93;2.33;;;15.70;91.70;;;;;;5029779;28;20201;-72
2022/05/14 00:27:52;;;;;;;5.28;1.65;;;15.70;91.90;;;;;;5030864;28;20189;-72
2022/05/14 00:30:23;;;;;;;4.93;1.85;;;15.70;92.00;;;;;;5029734;28;20162;-72
2022/05/14 00:32:50;;;;;;;5.18;1.73;;;15.70;92.20;;;;;;5031275;28;20209;-72
2022/05/14 00:35:16;;;;;;;4.55;1.70;;;15.70;92.20;;;;;;5029435;28;20260;-72
2022/05/14 00:37:42;;;;;;;3.22;1.75;;;15.60;92.40;;;;;;5030402;28;20180;-72
2022/05/14 00:40:22;;;;;;;3.42;1.40;;;15.60;92.30;;;;;;5030610;28;20230;-72
2022/05/14 00:42:47;;;;;;;4.45;1.75;;;15.60;92.80;;;;;;5029542;28;20224;-72
2022/05/14 00:45:16;;;;;;;6.03;1.60;;;15.60;92.70;;;;;;5029642;28;20217;-72
2022/05/14 00:47:45;;;;;;;4.35;2.28;;;15.60;93.00;;;;;;5029386;28;20565;-72
2022/05/14 00:50:41;;;;;;;5.55;1.98;;;15.60;93.10;;;;;;5030634;28;20178;-72
2022/05/14 00:53:18;;;;;;;4.43;1.65;;;15.60;93.70;;;;;;5029684;28;20525;-72
2022/05/14 00:55:46;;;;;;;2.83;1.60;;;15.60;93.60;;;;;;5029081;28;20203;-71
2022/05/14 00:58:46;;;;;;;4.47;2.20;;;15.60;93.30;;;;;;5029625;28;20185;-72
2022/05/14 01:01:13;;;;;;;2.85;1.98;;;15.50;94.00;;;;;;5029507;28;20178;-72
2022/05/14 01:03:39;;;;;;;7.78;2.70;;;15.50;93.40;;;;;;5013357;28;20169;-72
2022/05/14 01:06:10;;;;;;;3.28;1.63;;;15.50;93.60;;;;;;5028877;28;20202;-72
2022/05/14 01:08:36;;;;;;;6.63;1.35;;;15.50;93.80;;;;;;5013003;28;20172;-72
2022/05/14 01:11:03;;;;;;;6.78;2.40;;;15.40;93.80;;;;;;5029295;28;20178;-72
2022/05/14 01:13:31;;;;;;;4.13;1.40;;;15.40;93.90;;;;;;5029562;28;20185;-73
2022/05/14 01:16:00;;;;;;;4.30;1.60;;;15.40;94.00;;;;;;5031132;28;20192;-72
2022/05/14 01:18:31;;;;;;;5.97;1.80;;;15.30;94.20;;;;;;5016920;28;20173;-73
2022/05/14 01:21:01;;;;;;;4.30;1.50;;;15.30;94.30;;;;;;5032912;28;20188;-72
2022/05/14 01:26:27;;;;;;;3.08;1.55;;;15.30;94.60;;;;;;5032999;28;20198;-73
2022/05/14 01:26:28;;;;;;;5.53;1.95;;;15.20;95.00;;;;;;5032569;28;20224;-72
2022/05/14 01:28:55;;;;;;;2.95;1.55;;;15.20;94.70;;;;;;5033219;28;20256;-72
2022/05/14 01:31:22;;;;;;;4.07;2.00;;;15.20;94.80;;;;;;5032780;28;20363;-72
2022/05/14 01:33:48;;;;;;;4.32;1.45;;;15.10;95.00;;;;;;5033105;28;20170;-72
2022/05/14 01:36:13;;;;;;;3.40;1.63;;;15.10;95.20;;;;;;5032364;28;20217;-72
2022/05/14 01:38:40;;;;;;;6.20;1.83;;;15.10;95.30;;;;;;5032834;28;20750;-72
2022/05/14 01:41:06;;;;;;;7.07;1.88;;;15.10;95.40;;;;;;5032552;28;20573;-72
2022/05/14 01:43:32;;;;;;;3.28;1.30;;;15.10;95.60;;;;;;5034292;28;20165;-72
2022/05/14 01:45:59;;;;;;;8.90;1.57;;;15.10;95.60;;;;;;5032423;28;21026;-72
2022/05/14 01:48:25;;;;;;;7.65;1.73;;;15.00;95.70;;;;;;5016459;28;20568;-72
2022/05/14 01:50:52;;;;;;;3.58;1.27;;;15.00;95.70;;;;;;5032581;28;20166;-72
2022/05/14 01:53:18;;;;;;;4.18;1.60;;;15.00;95.90;;;;;;5016200;28;20208;-72
2022/05/14 01:55:44;;;;;;;5.20;1.40;;;15.00;95.90;;;;;;5032145;28;20221;-72
2022/05/14 02:00:58;;;;;;;3.08;2.00;;;14.90;96.00;;;;;;5032535;28;20929;-72
2022/05/14 02:03:25;;;;;;;5.45;2.05;;;14.90;96.00;;;;;;5032700;28;20174;-72
2022/05/14 02:05:51;;;;;;;3.10;1.20;;;14.90;96.20;;;;;;5031689;28;20275;-72
2022/05/14 02:08:17;;;;;;;3.50;1.37;;;14.90;96.60;;;;;;5032328;28;20664;-72
2022/05/14 02:10:43;;;;;;;5.13;1.67;;;14.80;96.30;;;;;;5032214;28;20169;-72
2022/05/14 02:13:10;;;;;;;5.97;1.50;;;14.80;96.40;;;;;;5032416;28;20262;-72
2022/05/14 02:15:37;;;;;;;4.70;1.80;;;14.80;96.60;;;;;;5033686;28;20205;-72
2022/05/14 02:18:04;;;;;;;3.90;1.80;;;14.80;96.70;;;;;;5032343;28;20212;-72
2022/05/14 02:20:30;;;;;;;5.10;1.47;;;14.70;96.70;;;;;;5031806;28;20197;-72
2022/05/14 02:22:56;;;;;;;4.00;1.55;;;14.70;96.80;;;;;;5033310;28;20169;-72
2022/05/14 02:25:21;;;;;;;2.93;1.40;;;14.70;97.00;;;;;;5033305;28;20567;-72
2022/05/14 02:27:47;;;;;;;2.93;1.60;;;14.70;97.10;;;;;;5030629;28;21103;-72
2022/05/14 02:30:15;;;;;;;5.55;1.70;;;14.60;97.10;;;;;;5031637;28;20525;-72
2022/05/14 02:32:41;;;;;;;4.47;1.65;;;14.60;97.10;;;;;;5015482;28;20174;-72
2022/05/14 02:35:07;;;;;;;5.00;1.87;;;14.60;97.20;;;;;;5031911;28;20190;-71
2022/05/14 02:37:34;;;;;;;5.60;1.60;;;14.60;97.30;;;;;;5031260;28;20173;-71
2022/05/14 02:39:59;;;;;;;9.32;2.00;;;14.60;97.40;;;;;;5031679;28;20169;-72
2022/05/14 02:42:25;;;;;;;6.77;1.70;;;14.60;97.60;;;;;;5033169;28;20526;-72
2022/05/14 02:44:51;;;;;;;6.37;2.20;;;14.60;97.60;;;;;;5031616;28;20647;-71
2022/05/14 02:47:17;;;;;;;6.17;3.00;;;14.60;97.60;;;;;;5032441;28;20173;-72
2022/05/14 02:49:44;;;;;;;5.43;3.08;;;14.60;97.70;;;;;;5030939;28;20224;-72
2022/05/14 02:52:11;;;;;;;3.97;1.60;;;14.60;97.80;;;;;;5030693;28;20173;-72
2022/05/14 02:54:38;;;;;;;6.20;1.80;;;14.60;97.80;;;;;;5032742;28;20535;-72
2022/05/14 02:57:04;;;;;;;4.57;1.65;;;14.60;97.90;;;;;;5030950;28;20253;-72
2022/05/14 02:59:30;;;;;;;4.63;1.70;;;14.60;97.90;;;;;;5031493;28;20177;-72
2022/05/14 03:01:56;;;;;;;3.78;1.88;;;14.60;98.00;;;;;;5031121;28;20637;-72
2022/05/14 03:04:26;;;;;;;9.03;2.40;;;14.50;98.00;;;;;;5031315;28;20192;-71
2022/05/14 03:06:53;;;;;;;10.70;2.42;;;14.60;98.20;;;;;;5030665;28;20193;-71
2022/05/14 03:09:20;;;;;;;5.35;1.85;;;14.50;98.10;;;;;;5032637;28;20162;-72
2022/05/14 03:11:47;;;;;;;4.20;2.10;;;14.50;98.10;;;;;;5031202;28;20650;-72
2022/05/14 03:14:14;;;;;;;11.23;2.47;;;14.50;98.10;;;;;;5031246;28;20224;-72
2022/05/14 03:16:41;;;;;;;10.32;3.00;;;14.50;98.20;;;;;;5030698;28;20181;-72
2022/05/14 03:19:08;;;;;;;4.63;2.45;;;14.50;98.30;;;;;;5030919;28;20265;-72
2022/05/14 03:21:35;;;;;;;5.88;2.92;;;14.40;98.20;;;;;;5032013;28;20260;-72
2022/05/14 03:24:00;;;;;;;4.20;2.63;;;14.40;98.40;;;;;;5030723;28;20697;-72
2022/05/14 03:26:27;;;;;;;7.38;2.25;;;14.40;98.40;;;;;;5013892;28;20213;-72
2022/05/14 03:28:53;;;;;;;3.55;1.90;;;14.40;98.40;;;;;;5031040;28;20256;-72
2022/05/14 03:31:19;;;;;;;4.33;2.13;;;14.40;98.40;;;;;;5030499;28;20687;-72
2022/05/14 03:33:45;;;;;;;4.80;1.95;;;14.30;98.40;;;;;;5031838;28;20542;-72
2022/05/14 03:36:11;;;;;;;3.70;2.03;;;14.30;98.50;;;;;;5031617;28;20269;-72
2022/05/14 03:38:38;;;;;;;4.50;2.53;;;14.30;98.80;;;;;;5030528;28;20170;-72
2022/05/14 03:41:04;;;;;;;7.75;1.92;;;14.30;98.50;;;;;;5030412;28;20576;-72
2022/05/14 03:43:31;;;;;;;6.40;2.15;;;14.20;98.50;;;;;;5030693;28;20581;-72
2022/05/14 03:45:57;;;;;;;3.03;2.17;;;14.20;98.60;;;;;;5031056;28;20288;-72
2022/05/14 03:48:24;;;;;;;3.15;1.63;;;14.10;98.60;;;;;;5030261;28;20193;-72
2022/05/14 03:50:50;;;;;;;4.97;2.20;;;14.10;98.80;;;;;;5030214;28;20174;-72
2022/05/14 03:53:15;;;;;;;5.03;1.60;;;14.10;98.90;;;;;;5030576;28;20166;-72
2022/05/14 03:55:42;;;;;;;5.13;2.20;;;14.00;99.00;;;;;;5029942;28;20642;-72
2022/05/14 03:58:07;;;;;;;5.60;1.80;;;14.00;98.90;;;;;;5031594;28;20573;-72
2022/05/14 04:00:34;;;;;;;4.13;2.07;;;14.00;99.00;;;;;;5030026;28;20586;-72
2022/05/14 04:03:00;;;;;;;4.50;2.53;;;14.00;99.10;;;;;;5013722;28;20704;-72
2022/05/14 04:05:27;;;;;;;5.28;2.50;;;13.90;99.10;;;;;;5013852;28;20285;-72
2022/05/14 04:07:52;;;;;;;5.23;1.70;;;13.90;99.20;;;;;;5029934;28;20681;-72
2022/05/14 04:10:18;;;;;;;5.60;1.43;;;13.90;99.30;;;;;;5029941;28;20563;-72
2022/05/14 04:12:44;;;;;;;4.80;2.15;;;13.90;99.40;;;;;;5030369;28;20256;-72
2022/05/14 04:15:12;;;;;;;4.43;1.23;;;13.80;99.40;;;;;;5030129;28;20739;-72
2022/05/14 04:17:38;;;;;;;5.35;1.85;;;13.80;99.50;;;;;;5030640;28;20181;-72
2022/05/14 04:20:04;;;;;;;3.83;1.57;;;13.80;99.50;;;;;;5029797;28;20170;-72
2022/05/14 04:22:31;;;;;;;3.55;1.23;;;13.70;99.60;;;;;;5030231;28;20174;-72
2022/05/14 04:24:58;;;;;;;5.10;1.50;;;13.80;99.80;;;;;;5012909;28;20829;-72
2022/05/14 04:27:24;;;;;;;4.47;1.77;;;13.80;99.90;;;;;;5030720;28;20253;-72
2022/05/14 04:29:51;;;;;;;6.95;2.15;;;13.70;99.80;;;;;;5013330;28;20181;-72
2022/05/14 04:32:18;;;;;;;4.70;1.80;;;13.70;99.90;;;;;;5029620;28;20166;-72
2022/05/14 04:34:45;;;;;;;3.67;1.80;;;13.70;99.90;;;;;;5030070;28;20202;-72
2022/05/14 04:37:12;;;;;;;4.70;1.70;;;13.70;99.90;;;;;;5029555;28;20162;-72
2022/05/14 04:39:40;;;;;;;4.40;1.45;;;13.70;99.90;;;;;;5029667;28;20173;-72
2022/05/14 04:42:09;;;;;;;4.40;1.38;;;13.80;99.90;;;;;;5029835;28;20177;-72
2022/05/14 04:44:37;;;;;;;5.78;1.50;;;13.70;99.90;;;;;;5030822;28;20197;-72
2022/05/14 04:47:04;;;;;;;3.28;1.45;;;13.80;99.90;;;;;;5029016;28;20600;-72
2022/05/14 04:49:30;;;;;;;6.03;1.48;;;13.70;99.90;;;;;;5029734;28;20177;-72
2022/05/14 04:51:56;;;;;;;2.80;1.23;;;13.80;99.90;;;;;;5031983;28;20577;-72
2022/05/14 04:54:23;;;;;;;3.25;2.05;;;13.80;99.90;;;;;;5033730;28;20170;-72
2022/05/14 04:56:49;;;;;;;2.70;1.50;;;13.80;99.90;;;;;;5034594;28;20170;-72
2022/05/14 04:59:15;;;;;;;4.90;1.50;;;13.80;99.90;;;;;;5017420;28;20964;-72
2022/05/14 05:03:16;;;;;;;3.72;1.42;;;13.80;99.90;;;;;;5033088;28;20960;-72
2022/05/14 05:04:28;;;;;;;5.65;1.45;;;13.90;99.90;;;;;;5033474;28;20252;-73
2022/05/14 05:06:54;;;;;;;2.20;1.40;;;13.90;99.90;;;;;;5033118;28;20173;-72
2022/05/14 05:09:19;;;;;;;2.43;1.60;;;13.90;99.90;;;;;;5033769;28;20173;-72
2022/05/14 05:11:45;;;;;;;3.10;1.33;;;14.00;99.90;;;;;;5034378;28;20170;-72
2022/05/14 05:14:11;;;;;;;4.40;1.60;;;14.00;99.90;;;;;;5031712;28;20168;-72
2022/05/14 05:16:36;;;;;;;5.67;1.27;;;14.10;99.90;;;;;;5033847;28;20185;-72
2022/05/14 05:19:02;;;;;;;6.80;1.83;;;14.20;99.90;;;;;;5034417;28;20223;-72
2022/05/14 05:21:28;;;;;;;3.97;1.50;;;14.20;99.90;;;;;;5034265;28;20567;-72
2022/05/14 05:23:53;;;;;;;2.90;1.43;;;14.30;99.90;;;;;;5034559;28;20630;-72
2022/05/14 05:26:19;;;;;;;2.80;1.20;;;14.40;99.90;;;;;;5031922;28;20233;-72
2022/05/14 05:28:45;;;;;;;5.30;1.50;;;14.50;99.90;;;;;;5033409;28;20186;-72
2022/05/14 05:31:10;;;;;;;2.17;1.30;;;14.70;99.90;;;;;;5033737;28;20162;-72
2022/05/14 05:33:36;;;;;;;2.93;1.30;;;14.80;99.90;;;;;;5034246;28;20166;-72
2022/05/14 05:36:02;;;;;;;2.83;1.43;;;14.90;99.90;;;;;;5032429;28;20238;-72
2022/05/14 05:38:27;;;;;;;3.97;1.03;;;15.00;99.90;;;;;;5034279;28;20196;-72
2022/05/14 05:40:53;;;;;;;3.30;1.10;;;15.10;99.90;;;;;;5032890;28;20189;-72
2022/05/14 05:43:20;;;;;;;4.73;1.10;;;15.20;99.90;;;;;;5033405;28;20669;-72
2022/05/14 05:45:47;;;;;;;4.35;1.15;;;15.30;99.90;;;;;;5030897;28;20231;-72
2022/05/14 05:48:13;;;;;;;4.13;1.20;;;15.40;99.90;;;;;;5027932;28;20554;-72
2022/05/14 05:50:40;;;;;;;2.77;0.90;;;15.60;99.90;;;;;;5033758;28;20154;-72
2022/05/14 05:53:06;;;;;;;2.57;1.20;;;16.00;99.90;;;;;;5033850;28;21014;-72
2022/05/14 05:58:17;;;;;;;3.37;1.30;;;17.30;99.90;;;;;;5034505;28;20571;-72
2022/05/14 06:00:43;;;;;;;2.30;1.13;;;18.00;99.90;;;;;;5033798;28;20556;-71
2022/05/14 06:03:09;;;;;;;5.33;1.50;;;18.60;99.90;;;;;;5034228;28;20923;-72
2022/05/14 06:05:34;;;;;;;9.53;2.23;;;19.30;99.90;;;;;;5034020;28;20198;-71
2022/05/14 06:08:00;;;;;;;3.97;1.40;;;20.30;99.90;;;;;;5033876;28;20174;-72
2022/05/14 06:10:28;;;;;;;4.80;1.00;;;21.40;99.80;;;;;;5033581;28;20253;-72
2022/05/14 06:12:54;;;;;;;5.07;1.90;;;22.50;99.10;;;;;;5033812;28;20575;-72
2022/05/14 06:15:20;;;;;;;4.20;0.80;;;23.60;98.10;;;;;;5033747;28;20787;-72
2022/05/14 06:17:46;;;;;;;2.70;1.20;;;24.60;96.70;;;;;;5028683;28;20608;-72
2022/05/14 06:20:14;;;;;;;2.63;0.90;;;25.50;94.70;;;;;;5033460;28;20687;-73
2022/05/14 06:22:40;;;;;;;3.33;1.20;;;26.20;92.40;;;;;;5033682;28;20177;-73
2022/05/14 06:25:07;;;;;;;2.50;1.10;;;27.00;91.20;;;;;;5033362;28;20659;-72
2022/05/14 06:27:33;;;;;;;4.10;1.20;;;27.80;89.10;;;;;;5032863;28;20997;-73
2022/05/14 06:29:58;;;;;;;3.77;1.20;;;28.50;85.90;;;;;;5032888;28;20655;-73
2022/05/14 06:32:24;;;;;;;2.37;0.97;;;29.20;82.80;;;;;;5033334;28;20176;-73
2022/05/14 06:34:50;;;;;;;4.63;1.03;;;29.80;79.30;;;;;;5033038;28;20221;-73
2022/05/14 06:37:16;;;;;;;3.30;1.10;;;30.40;76.20;;;;;;5032908;28;20166;-72
2022/05/14 06:39:42;;;;;;;2.80;1.10;;;31.00;73.20;;;;;;5032583;28;20204;-72
2022/05/14 06:42:08;;;;;;;4.23;0.90;;;31.60;70.40;;;;;;5025835;28;20581;-73
2022/05/14 06:44:37;;;;;;;3.73;1.20;;;32.10;67.60;;;;;;5009532;28;20624;-73
2022/05/14 06:47:03;;;;;;;1.70;0.90;;;32.50;64.70;;;;;;5032669;28;20569;-73
2022/05/14 06:49:29;;;;;;;2.90;0.93;;;33.00;62.20;;;;;;5031793;28;20601;-73
2022/05/14 06:51:56;;;;;;;3.60;1.20;;;33.40;60.00;;;;;;5032743;28;20568;-73
2022/05/14 06:54:22;;;;;;;3.03;0.90;;;33.80;58.40;;;;;;5033104;28;20179;-73
2022/05/14 06:56:48;;;;;;;4.27;1.50;;;34.10;57.30;;;;;;5032204;28;20597;-73
2022/05/14 06:59:14;;;;;;;2.40;1.10;;;34.50;55.70;;;;;;5032836;28;20172;-73
2022/05/14 07:01:44;;;;;;;3.93;1.17;;;34.80;54.20;;;;;;5031237;28;21154;-73
2022/05/14 07:06:58;;;;;;;2.97;1.03;;;35.30;51.90;;;;;;5030958;28;20574;-73
2022/05/14 07:09:27;;;;;;;3.50;1.07;;;35.70;51.10;;;;;;5028001;28;20650;-72
2022/05/14 07:11:56;;;;;;;3.20;1.40;;;35.90;50.10;;;;;;5030171;28;20590;-72
2022/05/14 07:14:23;;;;;;;2.20;0.90;;;36.10;48.80;;;;;;5030332;28;20560;-72
2022/05/14 07:16:50;;;;;;;2.33;1.47;;;36.30;48.20;;;;;;5030361;28;20999;-72
2022/05/14 07:19:16;;;;;;;2.60;1.13;;;36.50;47.50;;;;;;5032482;28;20571;-72
2022/05/14 07:21:44;;;;;;;3.73;1.30;;;36.80;46.90;;;;;;5031533;28;20668;-72
2022/05/14 07:24:15;;;;;;;4.47;1.40;;;37.00;45.70;;;;;;5032085;28;20576;-70
2022/05/14 07:26:42;;;;;;;5.97;1.20;;;37.20;45.00;;;;;;5028987;28;20695;-71
2022/05/14 07:29:11;;;;;;;3.50;1.10;;;37.30;44.10;;;;;;5029881;28;20580;-71
2022/05/14 07:31:38;;;;;;;3.77;0.90;;;37.50;43.50;;;;;;5030164;28;20597;-71
2022/05/14 07:34:04;;;;;;;3.30;1.00;;;37.60;43.30;;;;;;5030632;28;20608;-71
2022/05/14 07:36:33;;;;;;;5.10;1.23;;;37.70;42.60;;;;;;5029837;28;21013;-72
2022/05/14 07:39:03;;;;;;;4.07;1.40;;;37.80;42.20;;;;;;5030400;28;20174;-72
2022/05/14 07:41:29;;;;;;;7.57;1.43;;;38.00;41.60;;;;;;5031026;28;20949;-72
2022/05/14 07:43:58;;;;;;;3.83;1.30;;;38.10;41.20;;;;;;5030006;28;21144;-71
2022/05/14 07:46:29;;;;;;;3.80;1.50;;;38.30;40.90;;;;;;5029760;28;20689;-72
2022/05/14 07:48:58;;;;;;;3.67;1.10;;;38.40;40.00;;;;;;5031760;28;20572;-72
2022/05/14 07:51:25;;;;;;;3.80;1.40;;;38.50;40.20;;;;;;5031435;28;20595;-72
2022/05/14 07:53:52;;;;;;;4.70;1.10;;;38.50;39.40;;;;;;5031233;28;20556;-72
2022/05/14 07:56:18;;;;;;;4.23;1.00;;;38.50;39.00;;;;;;5030627;28;20596;-72
2022/05/14 07:58:44;;;;;;;4.20;1.30;;;38.60;38.70;;;;;;5030952;28;20590;-71
2022/05/14 08:01:10;;;;;;;3.20;1.40;;;38.60;38.70;;;;;;5031217;28;20590;-72
2022/05/14 08:03:36;;;;;;;2.10;1.00;;;38.70;38.50;;;;;;5031367;28;20699;-71
2022/05/14 08:06:03;;;;;;;3.80;1.50;;;38.80;38.00;;;;;;5030435;28;21199;-71
2022/05/14 08:08:29;;;;;;;3.00;1.13;;;38.90;37.50;;;;;;5030927;28;20166;-71
2022/05/14 08:10:56;;;;;;;2.97;1.10;;;38.90;37.40;;;;;;5024338;28;20577;-71
2022/05/14 08:13:23;;;;;;;4.40;1.40;;;38.90;36.90;;;;;;5044600;28;20596;-71
2022/05/14 08:15:50;;;;;;;2.90;1.27;;;38.90;36.50;;;;;;5030133;28;20600;-72
2022/05/14 08:18:16;;;;;;;3.40;1.37;;;38.90;36.40;;;;;;5029257;28;20592;-72
2022/05/14 08:20:44;;;;;;;2.50;1.00;;;39.00;36.40;;;;;;5030400;28;20576;-72
2022/05/14 08:25:58;;;;;;;4.03;1.40;;;39.00;35.70;;;;;;5025320;28;20657;-73
2022/05/14 08:28:23;;;;;;;5.40;1.27;;;39.10;35.70;;;;;;5031017;28;20594;-72
2022/05/14 08:30:49;;;;;;;3.60;1.20;;;39.20;35.30;;;;;;5025789;28;20596;-72
2022/05/14 08:33:15;;;;;;;3.90;1.20;;;39.30;35.10;;;;;;5029471;28;20169;-73
2022/05/14 08:35:42;;;;;;;2.47;1.10;;;39.30;35.10;;;;;;5027264;28;20604;-72
2022/05/14 08:38:11;;;;;;;2.93;1.10;;;39.40;34.80;;;;;;5028640;28;20581;-72
2022/05/14 08:40:44;;;;;;;2.60;1.10;;;39.40;34.50;;;;;;5030451;28;20603;-72
2022/05/14 08:43:23;;;;;;;4.30;0.90;;;39.50;33.90;;;;;;5031253;28;20600;-72
2022/05/14 08:45:49;;;;;;;3.90;1.03;;;39.50;34.20;;;;;;5029346;28;20623;-72
2022/05/14 08:48:26;;;;;;;6.23;1.33;;;39.60;33.90;;;;;;5031084;28;21144;-72
2022/05/14 08:51:11;;;;;;;2.33;1.00;;;39.60;33.50;;;;;;5029699;28;20939;-72
2022/05/14 08:53:38;;;;;;;3.87;1.20;;;39.60;33.20;;;;;;5030757;28;20572;-72
2022/05/14 08:56:14;;;;;;;2.77;1.20;;;39.50;33.50;;;;;;5030408;28;20707;-72
2022/05/14 08:59:35;;;;;;;2.73;0.90;;;39.60;33.60;;;;;;5029509;28;20567;-72
2022/05/14 09:02:25;;;;;;;3.43;1.27;;;39.70;33.70;;;;;;5031100;28;20575;-72
2022/05/14 09:05:06;;;;;;;4.13;1.50;;;39.90;33.50;;;;;;5030690;28;21199;-72
2022/05/14 09:07:32;;;;;;;5.43;1.67;;;40.10;33.20;;;;;;5029377;28;20638;-72
2022/05/14 09:09:58;;;;;;;2.03;1.07;;;40.10;32.90;;;;;;5030093;28;20580;-72
2022/05/14 09:12:30;;;;;;;3.13;0.90;;;40.30;33.20;;;;;;5030709;28;20580;-72
2022/05/14 09:15:10;;;;;;;2.97;1.00;;;40.40;32.40;;;;;;5029619;28;20205;-72
2022/05/14 09:17:35;;;;;;;4.30;1.40;;;40.50;32.20;;;;;;5029583;28;20672;-72
2022/05/14 09:20:01;;;;;;;2.10;1.10;;;40.60;32.00;;;;;;5030119;28;20644;-72
2022/05/14 09:22:30;;;;;;;4.37;1.50;;;40.10;31.10;;;;;;5029347;28;20184;-72
2022/05/14 09:25:05;;;;;;;2.83;1.20;;;39.50;31.10;;;;;;5030648;28;20201;-72
2022/05/14 09:27:54;;;;;;;2.63;1.33;;;39.40;31.50;;;;;;5030800;28;20576;-72
2022/05/14 09:30:35;;;;;;;4.30;1.23;;;39.50;31.60;;;;;;5029248;28;20660;-72
2022/05/14 09:33:02;;;;;;;3.27;1.33;;;39.70;31.80;;;;;;5030579;28;20564;-72
2022/05/14 09:35:32;;;;;;;3.23;1.30;;;39.80;31.70;;;;;;5030368;28;20599;-72
2022/05/14 09:38:18;;;;;;;5.63;1.17;;;40.00;31.90;;;;;;5031584;28;20610;-72
2022/05/14 09:40:44;;;;;;;4.20;1.20;;;40.20;32.10;;;;;;5033891;28;20965;-72
2022/05/14 09:43:10;;;;;;;10.73;1.77;;;40.30;32.20;;;;;;5034129;28;20570;-72
2022/05/14 09:45:39;;;;;;;3.23;1.40;;;40.10;31.20;;;;;;5033973;28;20627;-72
2022/05/14 09:48:18;;;;;;;3.50;1.10;;;39.70;30.00;;;;;;5033829;28;20185;-72
2022/05/14 09:50:55;;;;;;;3.83;1.47;;;39.40;30.40;;;;;;5032653;28;20564;-72
2022/05/14 09:53:30;;;;;;;2.83;1.20;;;39.40;30.70;;;;;;5033898;28;20586;-72
2022/05/14 09:56:14;;;;;;;4.03;1.30;;;39.50;31.00;;;;;;5033827;28;20602;-72
2022/05/14 09:59:01;;;;;;;4.77;1.20;;;39.50;31.20;;;;;;5033391;28;20564;-72
2022/05/14 10:01:32;;;;;;;2.73;1.00;;;39.50;31.50;;;;;;5033618;28;20600;-72
2022/05/14 10:04:40;;;;;;;3.70;1.20;;;39.60;31.20;;;;;;5033844;28;20992;-72
2022/05/14 10:07:16;;;;;;;3.17;1.07;;;39.90;31.50;;;;;;5033631;28;20611;-72
2022/05/14 10:10:04;;;;;;;5.07;1.30;;;40.00;31.50;;;;;;5032834;28;20655;-72
2022/05/14 10:12:45;;;;;;;2.80;0.90;;;40.10;31.20;;;;;;5032249;28;20580;-72
2022/05/14 10:15:22;;;;;;;2.80;1.10;;;40.20;31.10;;;;;;5033627;28;20602;-72
2022/05/14 10:18:13;;;;;;;3.07;1.33;;;40.30;30.60;;;;;;5033108;28;20575;-72
2022/05/14 10:20:50;;;;;;;3.30;1.20;;;40.30;30.50;;;;;;5033038;28;20568;-72
2022/05/14 10:26:49;;;;;;;3.93;1.30;;;40.30;31.40;;;;;;5033271;28;20633;-72
2022/05/14 10:29:38;;;;;;;3.37;1.30;;;40.30;31.00;;;;;;5033217;28;20881;-72
2022/05/14 10:32:11;;;;;;;5.20;1.30;;;40.30;31.10;;;;;;5032474;28;20603;-72
2022/05/14 10:34:55;;;;;;;5.27;1.03;;;40.30;30.60;;;;;;5029862;28;21186;-72
2022/05/14 10:37:30;;;;;;;4.37;1.53;;;40.30;30.90;;;;;;5033307;28;20571;-72
2022/05/14 10:40:21;;;;;;;4.13;1.37;;;40.30;30.40;;;;;;5032555;28;20968;-72
2022/05/14 10:42:53;;;;;;;5.80;1.77;;;40.20;30.20;;;;;;5032838;28;20568;-72
2022/05/14 10:45:39;;;;;;;3.23;1.23;;;40.10;30.80;;;;;;5031799;28;20624;-72
2022/05/14 10:48:23;;;;;;;3.60;1.40;;;39.90;30.60;;;;;;5032026;28;20663;-72
2022/05/14 10:50:49;;;;;;;2.23;1.27;;;39.70;30.90;;;;;;5030869;28;21199;-72
2022/05/14 10:53:16;;;;;;;2.90;1.27;;;39.50;30.70;;;;;;5032854;28;20668;-72
2022/05/14 10:55:51;;;;;;;6.67;2.57;;;39.20;30.40;;;;;;5031514;28;20247;-72
2022/05/14 10:58:35;;;;;;;4.67;2.10;;;38.90;30.50;;;;;;5031096;28;20618;-72
2022/05/14 11:01:06;;;;;;;4.30;1.57;;;38.70;30.40;;;;;;5031148;28;20573;-72
2022/05/14 11:03:36;;;;;;;5.33;2.40;;;38.30;30.30;;;;;;5032672;28;20564;-72
2022/05/14 11:06:01;;;;;;;7.13;1.83;;;37.80;30.10;;;;;;5032072;28;20632;-72
2022/05/14 11:08:46;;;;;;;6.10;1.80;;;37.50;30.50;;;;;;5032073;28;20575;-72
2022/05/14 11:11:19;;;;;;;8.77;2.63;;;37.10;30.70;;;;;;5032289;28;20307;-72
2022/05/14 11:14:01;;;;;;;3.33;1.73;;;36.70;31.60;;;;;;5032675;28;20595;-72
2022/05/14 11:16:49;;;;;;;8.17;1.93;;;36.50;32.70;;;;;;5032378;28;20588;-72
2022/05/14 11:19:28;;;;;;;2.67;1.97;;;36.40;32.50;;;;;;5031675;28;20572;-72
2022/05/14 11:21:55;;;;;;;6.27;2.10;;;36.30;32.70;;;;;;5030776;28;20560;-72
2022/05/14 11:24:35;;;;;;;3.60;1.50;;;36.00;31.90;;;;;;5014792;28;20667;-72
2022/05/14 11:27:02;;;;;;;5.47;2.07;;;35.50;31.70;;;;;;5032215;28;21208;-72
2022/05/14 11:29:33;;;;;;;5.50;4.50;;;35.20;31.80;;;;;;5030301;28;20682;-71
2022/05/14 11:32:09;;;;;;;6.20;2.27;;;35.10;32.30;;;;;;5030684;28;20579;-71
2022/05/14 11:34:35;;;;;;;5.70;1.93;;;35.00;32.10;;;;;;5030717;28;20567;-71
2022/05/14 11:37:04;;;;;;;6.30;1.70;;;34.80;32.60;;;;;;5031940;28;20583;-72
2022/05/14 11:39:36;;;;;;;11.20;2.20;;;34.80;33.00;;;;;;5031367;28;20560;-72
2022/05/14 11:42:25;;;;;;;5.20;1.57;;;34.80;33.50;;;;;;5030708;28;20583;-71
2022/05/14 11:45:24;;;;;;;3.80;1.40;;;34.70;33.00;;;;;;5031696;28;20630;-71
2022/05/14 11:47:55;;;;;;;6.03;1.87;;;34.60;33.20;;;;;;5029340;28;21158;-71
2022/05/14 11:50:30;;;;;;;2.50;1.23;;;34.60;33.30;;;;;;5031448;28;20554;-71
2022/05/14 11:53:07;;;;;;;4.07;1.53;;;34.50;33.40;;;;;;5031758;28;20669;-72
2022/05/14 11:55:51;;;;;;;3.67;1.57;;;34.40;33.20;;;;;;5031577;28;20598;-71
2022/05/14 11:58:41;;;;;;;3.70;1.40;;;34.30;33.30;;;;;;5031205;28;20670;-72
2022/05/14 12:01:09;;;;;;;4.33;1.00;;;34.20;34.10;;;;;;5031034;28;20586;-71
2022/05/14 12:03:40;;;;;;;5.33;1.53;;;34.20;33.70;;;;;;5031322;28;20572;-72
2022/05/14 12:06:38;;;;;;;5.77;1.40;;;34.10;33.70;;;;;;5029854;28;20642;-71
2022/05/14 12:09:10;;;;;;;5.00;1.90;;;33.90;33.60;;;;;;5031382;28;20669;-72
2022/05/14 12:11:56;;;;;;;4.33;1.40;;;33.70;33.70;;;;;;5031255;28;20566;-71
2022/05/14 12:14:32;;;;;;;5.20;1.93;;;33.50;34.10;;;;;;5010323;28;20577;-72
2022/05/14 12:17:01;;;;;;;8.13;1.83;;;33.40;34.30;;;;;;5031157;28;20589;-72
2022/05/14 12:19:30;;;;;;;5.23;1.50;;;33.30;34.50;;;;;;5030763;28;20569;-71
2022/05/14 12:22:01;;;;;;;3.73;1.07;;;33.10;34.70;;;;;;5031255;28;20623;-72
2022/05/14 12:24:35;;;;;;;5.90;1.80;;;33.10;35.00;;;;;;5031289;28;20572;-72
2022/05/14 12:27:02;;;;;;;4.50;1.50;;;33.00;34.80;;;;;;5031300;28;20668;-72
2022/05/14 12:29:33;;;;;;;3.40;1.20;;;32.70;34.30;;;;;;5030800;28;20564;-71
2022/05/14 12:34:52;;;;;;;3.60;1.17;;;32.10;34.50;;;;;;5029787;28;20592;-72
2022/05/14 12:37:21;;;;;;;8.40;1.40;;;31.80;34.30;;;;;;5031266;28;20710;-71
2022/05/14 12:39:50;;;;;;;6.90;1.90;;;31.50;34.40;;;;;;5030487;28;20558;-72
2022/05/14 12:42:30;;;;;;;4.73;1.60;;;31.30;34.30;;;;;;5031247;28;20565;-71
2022/05/14 12:44:57;;;;;;;4.37;1.80;;;31.00;34.10;;;;;;5030934;28;20652;-72
2022/05/14 12:47:26;;;;;;;12.53;2.93;;;30.70;34.20;;;;;;5030998;28;20608;-72
2022/05/14 12:49:52;;;;;;;4.83;1.33;;;30.30;34.70;;;;;;5030514;28;21046;-71
2022/05/14 12:52:21;;;;;;;4.57;1.47;;;29.90;34.60;;;;;;5030982;28;20576;-71
2022/05/14 12:55:01;;;;;;;3.23;1.10;;;29.50;35.10;;;;;;5030882;28;20620;-71
2022/05/14 12:57:28;;;;;;;6.40;1.30;;;29.20;35.80;;;;;;5030930;28;20656;-71
2022/05/14 12:59:54;;;;;;;3.13;1.20;;;28.90;35.80;;;;;;5029901;28;20622;-71
2022/05/14 13:02:29;;;;;;;3.93;1.17;;;28.60;35.90;;;;;;5029551;28;20575;-71
2022/05/14 13:05:01;;;;;;;3.83;1.50;;;28.40;36.40;;;;;;5030609;28;20639;-71
2022/05/14 13:11:21;;;;;;;6.23;1.63;;;27.90;37.30;;;;;;5030698;28;20575;-71
2022/05/14 13:13:53;;;;;;;3.20;1.50;;;27.60;37.00;;;;;;5033607;28;20583;-71
2022/05/14 13:16:28;;;;;;;4.20;1.50;;;27.50;37.20;;;;;;5034407;28;20600;-71
2022/05/14 13:18:57;;;;;;;3.40;1.10;;;27.30;37.30;;;;;;5034324;28;20565;-71
2022/05/14 13:21:44;;;;;;;4.73;2.13;;;27.20;37.40;;;;;;5034362;28;20621;-71